Julian, CA (92036)

3:13 AM PDT on October 25, 2014 (GMT -0700)
Pinezanita RV Park & Campgrounds | Change Station
CLOSE
Current Station
Personal Weather Station
Location: Julian, CA
Elevation: 4698 ft
Nearby Weather Stations

Elev 4698 ft 33.04 °N, 116.56 °W | Updated 2 seconds ago

Clear
Clear
54.3 °F
Feels Like 54.3 °F
N
6.0
Wind Variable Wind from WSW
Gusts 9.0 mph

Today
High -- | Low -- °F
--% Chance of Precip.
Yesterday
High -- | Low -- °F
Precip. -- in
6:58 AM 6:01 PM
New Moon, 2% visible
Pressure 29.97 in
Visibility -9999.0 miles
Clouds
Dew Point 42 °F
Humidity 62%
Rainfall 0.00 in
Snow Depth Not available.
UV Not available.
Pollen 3.80 out of 12
Air Quality Not available.
Flu Activity Sporadic
METAR KCZZ 250952Z AUTO 06008KT 11/03 A3005 RMK AO1 SLP147 T01110028

More Conditions Fewer Conditions

Pressure 29.97 in
Visibility -9999.0 miles
Clouds
Dew Point 42 °F
Humidity 62%
Rainfall 0.00 in
Snow Depth Not available.
UV Not available.
Pollen 3.80 out of 12
Air Quality Not available.
Flu Activity Sporadic
METAR KCZZ 250952Z AUTO 06008KT 11/03 A3005 RMK AO1 SLP147 T01110028

More Conditions Fewer Conditions

10-Day Weather Forecast

Almanac

Astronomy

Oct. 25, 2014 Rise Set
Actual Time 6:58 AM PDT 6:01 PM PDT
Civil Twilight 6:33 AM PDT 6:26 PM PDT
Nautical Twilight 6:04 AM PDT 6:55 PM PDT
Astronomical Twilight 5:35 AM PDT 7:24 PM PDT
Moon 8:37 AM PDT 7:32 PM PDT
Length of Visible Light 11h 53m
Length of Day
11h 03m
Tomorrow will be 1m 51s shorter.
New Moon, 2% of the Moon is Illuminated
Today
New Moon
Oct 30
First Quarter
Nov 6
Full
Nov 14
Last Quarter
Nov 22
New

Today's Extremes

State Highs State Lows

Community

WunderPhotos

Upload Photos

1,764,796 photos uploaded!

Nearby

Snow Depth

Station Depth Elevation
Virginia Lakes Ridge 0 in 9200 ft
Leavitt Lake 1 in 9400 ft
Leavitt Meadows 0 in 7200 ft
Sonora Pass 0 in 8800 ft
Summit Meadow 1 in 9122 ft

Earthquake Activity

City Distance Mag. Time & Date
Maneadero, Mexico 104 miles 2.5 7:44 AM PDT
2014-10-24
San Felipe, Mexico 124 miles 3.0 11:00 PM PDT
2014-10-23
Brea, California 99 miles 2.9 3:35 PM PDT
2014-10-23
Brea, California 99 miles 2.8 3:34 PM PDT
2014-10-23
Minimum magnitude displayed is 2.5.

Coastal Water Temperatures

Place Temperature
No Stations Reporting

Nearby Weather Stations